sensor_id;sensor_type;location;lat;lon;timestamp;P1;durP1;ratioP1;P2;durP2;ratioP2
11539;SDS011;5826;54.756;9.192;2024-03-02T00:00:57;18.63;;;13.25;;
11539;SDS011;5826;54.756;9.192;2024-03-02T00:03:22;13.70;;;10.32;;
11539;SDS011;5826;54.756;9.192;2024-03-02T00:05:49;20.92;;;15.68;;
11539;SDS011;5826;54.756;9.192;2024-03-02T00:08:19;18.05;;;12.65;;
11539;SDS011;5826;54.756;9.192;2024-03-02T00:10:49;16.52;;;11.88;;
11539;SDS011;5826;54.756;9.192;2024-03-02T00:13:14;18.60;;;11.80;;
11539;SDS011;5826;54.756;9.192;2024-03-02T00:15:41;14.70;;;10.63;;
11539;SDS011;5826;54.756;9.192;2024-03-02T00:18:16;15.07;;;10.25;;
11539;SDS011;5826;54.756;9.192;2024-03-02T00:20:44;14.48;;;11.25;;
11539;SDS011;5826;54.756;9.192;2024-03-02T00:23:10;16.88;;;12.13;;
11539;SDS011;5826;54.756;9.192;2024-03-02T00:25:44;17.85;;;11.77;;
11539;SDS011;5826;54.756;9.192;2024-03-02T00:28:14;18.08;;;11.85;;
11539;SDS011;5826;54.756;9.192;2024-03-02T00:30:51;21.48;;;14.80;;
11539;SDS011;5826;54.756;9.192;2024-03-02T00:33:25;16.88;;;11.68;;
11539;SDS011;5826;54.756;9.192;2024-03-02T00:35:52;17.60;;;12.68;;
11539;SDS011;5826;54.756;9.192;2024-03-02T00:38:19;16.00;;;11.32;;
11539;SDS011;5826;54.756;9.192;2024-03-02T00:40:44;21.90;;;14.13;;
11539;SDS011;5826;54.756;9.192;2024-03-02T00:43:21;13.88;;;10.50;;
11539;SDS011;5826;54.756;9.192;2024-03-02T00:46:11;14.25;;;9.85;;
11539;SDS011;5826;54.756;9.192;2024-03-02T00:48:37;14.00;;;10.10;;
11539;SDS011;5826;54.756;9.192;2024-03-02T00:51:04;16.75;;;11.68;;
11539;SDS011;5826;54.756;9.192;2024-03-02T00:53:30;13.80;;;9.98;;
11539;SDS011;5826;54.756;9.192;2024-03-02T00:55:57;16.05;;;11.13;;
11539;SDS011;5826;54.756;9.192;2024-03-02T00:58:24;23.05;;;15.55;;
11539;SDS011;5826;54.756;9.192;2024-03-02T01:00:49;15.48;;;11.48;;
11539;SDS011;5826;54.756;9.192;2024-03-02T01:03:15;14.95;;;10.90;;
11539;SDS011;5826;54.756;9.192;2024-03-02T01:05:41;16.00;;;10.77;;
11539;SDS011;5826;54.756;9.192;2024-03-02T01:08:07;17.20;;;11.82;;
11539;SDS011;5826;54.756;9.192;2024-03-02T01:10:33;17.77;;;12.15;;
11539;SDS011;5826;54.756;9.192;2024-03-02T01:12:59;16.35;;;12.25;;
11539;SDS011;5826;54.756;9.192;2024-03-02T01:15:24;19.67;;;12.82;;
11539;SDS011;5826;54.756;9.192;2024-03-02T01:17:50;19.75;;;12.63;;
11539;SDS011;5826;54.756;9.192;2024-03-02T01:20:15;18.25;;;12.43;;
11539;SDS011;5826;54.756;9.192;2024-03-02T01:22:41;17.38;;;11.40;;
11539;SDS011;5826;54.756;9.192;2024-03-02T01:25:06;16.42;;;12.20;;
11539;SDS011;5826;54.756;9.192;2024-03-02T01:27:33;17.17;;;11.80;;
11539;SDS011;5826;54.756;9.192;2024-03-02T01:29:59;15.55;;;11.40;;
11539;SDS011;5826;54.756;9.192;2024-03-02T01:32:24;21.80;;;15.27;;
11539;SDS011;5826;54.756;9.192;2024-03-02T01:34:50;15.75;;;11.18;;
11539;SDS011;5826;54.756;9.192;2024-03-02T01:37:16;18.55;;;11.75;;
11539;SDS011;5826;54.756;9.192;2024-03-02T01:39:41;16.30;;;11.50;;
11539;SDS011;5826;54.756;9.192;2024-03-02T01:42:07;16.02;;;10.98;;
11539;SDS011;5826;54.756;9.192;2024-03-02T01:44:32;17.73;;;12.65;;
11539;SDS011;5826;54.756;9.192;2024-03-02T01:46:58;18.75;;;12.80;;
11539;SDS011;5826;54.756;9.192;2024-03-02T01:49:23;16.50;;;12.00;;
11539;SDS011;5826;54.756;9.192;2024-03-02T01:51:49;19.92;;;13.88;;
11539;SDS011;5826;54.756;9.192;2024-03-02T01:54:14;16.88;;;11.90;;
11539;SDS011;5826;54.756;9.192;2024-03-02T01:56:40;16.60;;;12.52;;
11539;SDS011;5826;54.756;9.192;2024-03-02T01:59:06;16.83;;;11.85;;
11539;SDS011;5826;54.756;9.192;2024-03-02T02:01:31;21.08;;;13.30;;
11539;SDS011;5826;54.756;9.192;2024-03-02T02:03:57;17.00;;;11.93;;
11539;SDS011;5826;54.756;9.192;2024-03-02T02:06:22;18.88;;;13.05;;
11539;SDS011;5826;54.756;9.192;2024-03-02T02:08:48;16.70;;;12.02;;
11539;SDS011;5826;54.756;9.192;2024-03-02T02:11:14;15.52;;;11.52;;
11539;SDS011;5826;54.756;9.192;2024-03-02T02:13:41;17.85;;;12.70;;
11539;SDS011;5826;54.756;9.192;2024-03-02T02:16:07;16.35;;;12.60;;
11539;SDS011;5826;54.756;9.192;2024-03-02T02:18:33;15.80;;;11.27;;
11539;SDS011;5826;54.756;9.192;2024-03-02T02:20:58;16.40;;;11.10;;
11539;SDS011;5826;54.756;9.192;2024-03-02T02:23:24;21.08;;;14.68;;
11539;SDS011;5826;54.756;9.192;2024-03-02T02:25:49;17.13;;;11.25;;
11539;SDS011;5826;54.756;9.192;2024-03-02T02:28:15;16.30;;;11.60;;
11539;SDS011;5826;54.756;9.192;2024-03-02T02:30:40;16.67;;;11.52;;
11539;SDS011;5826;54.756;9.192;2024-03-02T02:33:06;18.30;;;11.98;;
11539;SDS011;5826;54.756;9.192;2024-03-02T02:35:31;18.17;;;12.35;;
11539;SDS011;5826;54.756;9.192;2024-03-02T02:37:57;17.80;;;12.52;;
11539;SDS011;5826;54.756;9.192;2024-03-02T02:40:26;15.45;;;11.50;;
11539;SDS011;5826;54.756;9.192;2024-03-02T02:42:54;17.52;;;12.05;;
11539;SDS011;5826;54.756;9.192;2024-03-02T02:45:19;16.73;;;10.57;;
11539;SDS011;5826;54.756;9.192;2024-03-02T02:47:45;16.17;;;10.45;;
11539;SDS011;5826;54.756;9.192;2024-03-02T02:50:11;17.30;;;11.63;;
11539;SDS011;5826;54.756;9.192;2024-03-02T02:52:37;17.02;;;11.55;;
11539;SDS011;5826;54.756;9.192;2024-03-02T02:55:05;18.98;;;12.38;;
11539;SDS011;5826;54.756;9.192;2024-03-02T02:57:33;19.33;;;12.45;;
11539;SDS011;5826;54.756;9.192;2024-03-02T03:00:07;16.33;;;10.63;;
11539;SDS011;5826;54.756;9.192;2024-03-02T03:02:35;17.33;;;12.02;;
11539;SDS011;5826;54.756;9.192;2024-03-02T03:05:05;15.63;;;11.50;;
11539;SDS011;5826;54.756;9.192;2024-03-02T03:07:31;20.00;;;13.68;;
11539;SDS011;5826;54.756;9.192;2024-03-02T03:09:57;21.52;;;13.25;;
11539;SDS011;5826;54.756;9.192;2024-03-02T03:12:22;16.48;;;11.23;;
11539;SDS011;5826;54.756;9.192;2024-03-02T03:14:47;16.63;;;11.20;;
11539;SDS011;5826;54.756;9.192;2024-03-02T03:17:13;18.23;;;12.27;;
11539;SDS011;5826;54.756;9.192;2024-03-02T03:19:38;17.98;;;12.38;;
11539;SDS011;5826;54.756;9.192;2024-03-02T03:22:04;18.65;;;13.60;;
11539;SDS011;5826;54.756;9.192;2024-03-02T03:24:29;17.52;;;12.65;;
11539;SDS011;5826;54.756;9.192;2024-03-02T03:26:55;16.52;;;11.43;;
11539;SDS011;5826;54.756;9.192;2024-03-02T03:29:20;19.17;;;13.10;;
11539;SDS011;5826;54.756;9.192;2024-03-02T03:31:46;15.73;;;10.88;;
11539;SDS011;5826;54.756;9.192;2024-03-02T03:34:11;15.95;;;10.65;;
11539;SDS011;5826;54.756;9.192;2024-03-02T03:36:40;15.90;;;10.70;;
11539;SDS011;5826;54.756;9.192;2024-03-02T03:39:06;16.02;;;11.55;;
11539;SDS011;5826;54.756;9.192;2024-03-02T03:41:32;18.17;;;12.35;;
11539;SDS011;5826;54.756;9.192;2024-03-02T03:43:57;16.50;;;11.07;;
11539;SDS011;5826;54.756;9.192;2024-03-02T03:46:23;13.52;;;10.20;;
11539;SDS011;5826;54.756;9.192;2024-03-02T03:48:48;18.58;;;12.52;;
11539;SDS011;5826;54.756;9.192;2024-03-02T03:51:14;14.52;;;10.38;;
11539;SDS011;5826;54.756;9.192;2024-03-02T03:53:39;18.63;;;12.45;;
11539;SDS011;5826;54.756;9.192;2024-03-02T03:56:05;17.23;;;12.15;;
11539;SDS011;5826;54.756;9.192;2024-03-02T03:58:30;15.77;;;11.38;;
11539;SDS011;5826;54.756;9.192;2024-03-02T04:00:56;17.35;;;11.50;;
11539;SDS011;5826;54.756;9.192;2024-03-02T04:03:22;16.65;;;12.02;;
11539;SDS011;5826;54.756;9.192;2024-03-02T04:05:47;15.65;;;10.40;;
11539;SDS011;5826;54.756;9.192;2024-03-02T04:08:13;16.90;;;12.10;;
11539;SDS011;5826;54.756;9.192;2024-03-02T04:10:38;16.23;;;11.80;;
11539;SDS011;5826;54.756;9.192;2024-03-02T04:13:05;13.90;;;10.02;;
11539;SDS011;5826;54.756;9.192;2024-03-02T04:15:30;17.00;;;11.45;;
11539;SDS011;5826;54.756;9.192;2024-03-02T04:17:56;20.88;;;14.73;;
11539;SDS011;5826;54.756;9.192;2024-03-02T04:20:21;17.38;;;13.07;;
11539;SDS011;5826;54.756;9.192;2024-03-02T04:22:47;15.57;;;11.27;;
11539;SDS011;5826;54.756;9.192;2024-03-02T04:25:12;21.75;;;14.90;;
11539;SDS011;5826;54.756;9.192;2024-03-02T04:27:38;18.55;;;12.52;;
11539;SDS011;5826;54.756;9.192;2024-03-02T04:30:04;16.45;;;11.70;;
11539;SDS011;5826;54.756;9.192;2024-03-02T04:32:30;14.32;;;10.70;;
11539;SDS011;5826;54.756;9.192;2024-03-02T04:34:56;16.63;;;11.05;;
11539;SDS011;5826;54.756;9.192;2024-03-02T04:37:22;16.13;;;11.88;;
11539;SDS011;5826;54.756;9.192;2024-03-02T04:39:47;14.20;;;10.35;;
11539;SDS011;5826;54.756;9.192;2024-03-02T04:42:13;13.75;;;10.43;;
11539;SDS011;5826;54.756;9.192;2024-03-02T04:44:38;18.15;;;12.48;;
11539;SDS011;5826;54.756;9.192;2024-03-02T04:47:04;14.48;;;10.95;;
11539;SDS011;5826;54.756;9.192;2024-03-02T04:49:30;14.32;;;10.70;;
11539;SDS011;5826;54.756;9.192;2024-03-02T04:51:55;17.13;;;12.70;;
11539;SDS011;5826;54.756;9.192;2024-03-02T04:54:22;15.73;;;11.18;;
11539;SDS011;5826;54.756;9.192;2024-03-02T04:56:47;14.60;;;10.93;;
11539;SDS011;5826;54.756;9.192;2024-03-02T04:59:16;15.27;;;11.50;;
11539;SDS011;5826;54.756;9.192;2024-03-02T05:01:42;15.95;;;11.98;;
11539;SDS011;5826;54.756;9.192;2024-03-02T05:04:08;15.80;;;11.85;;
11539;SDS011;5826;54.756;9.192;2024-03-02T05:06:36;12.70;;;9.88;;
11539;SDS011;5826;54.756;9.192;2024-03-02T05:09:05;13.32;;;9.60;;
11539;SDS011;5826;54.756;9.192;2024-03-02T05:11:31;13.95;;;10.32;;
11539;SDS011;5826;54.756;9.192;2024-03-02T05:14:03;15.35;;;11.63;;
11539;SDS011;5826;54.756;9.192;2024-03-02T05:16:29;14.10;;;10.52;;
11539;SDS011;5826;54.756;9.192;2024-03-02T05:18:57;12.70;;;9.00;;
11539;SDS011;5826;54.756;9.192;2024-03-02T05:21:22;12.95;;;9.30;;
11539;SDS011;5826;54.756;9.192;2024-03-02T05:23:49;11.88;;;9.10;;
11539;SDS011;5826;54.756;9.192;2024-03-02T05:26:14;13.60;;;10.02;;
11539;SDS011;5826;54.756;9.192;2024-03-02T05:28:40;11.70;;;9.20;;
11539;SDS011;5826;54.756;9.192;2024-03-02T05:31:06;12.73;;;8.95;;
11539;SDS011;5826;54.756;9.192;2024-03-02T05:33:31;13.52;;;9.60;;
11539;SDS011;5826;54.756;9.192;2024-03-02T05:35:58;11.70;;;9.70;;
11539;SDS011;5826;54.756;9.192;2024-03-02T05:38:23;12.75;;;9.45;;
11539;SDS011;5826;54.756;9.192;2024-03-02T05:40:49;12.40;;;9.60;;
11539;SDS011;5826;54.756;9.192;2024-03-02T05:43:14;12.88;;;9.80;;
11539;SDS011;5826;54.756;9.192;2024-03-02T05:45:40;11.02;;;8.18;;
11539;SDS011;5826;54.756;9.192;2024-03-02T05:48:06;13.10;;;9.50;;
11539;SDS011;5826;54.756;9.192;2024-03-02T05:50:32;10.95;;;8.38;;
11539;SDS011;5826;54.756;9.192;2024-03-02T05:52:58;11.60;;;9.50;;
11539;SDS011;5826;54.756;9.192;2024-03-02T05:55:24;11.97;;;9.63;;
11539;SDS011;5826;54.756;9.192;2024-03-02T05:57:49;13.05;;;10.13;;
11539;SDS011;5826;54.756;9.192;2024-03-02T06:00:41;13.32;;;9.52;;
11539;SDS011;5826;54.756;9.192;2024-03-02T06:03:07;12.00;;;9.15;;
11539;SDS011;5826;54.756;9.192;2024-03-02T06:05:34;15.75;;;10.50;;
11539;SDS011;5826;54.756;9.192;2024-03-02T06:07:59;18.17;;;12.20;;
11539;SDS011;5826;54.756;9.192;2024-03-02T06:10:25;13.13;;;10.32;;
11539;SDS011;5826;54.756;9.192;2024-03-02T06:12:50;13.85;;;10.25;;
11539;SDS011;5826;54.756;9.192;2024-03-02T06:15:16;14.13;;;10.52;;
11539;SDS011;5826;54.756;9.192;2024-03-02T06:17:42;17.63;;;13.00;;
11539;SDS011;5826;54.756;9.192;2024-03-02T06:20:07;15.00;;;11.25;;
11539;SDS011;5826;54.756;9.192;2024-03-02T06:22:33;14.95;;;10.82;;
11539;SDS011;5826;54.756;9.192;2024-03-02T06:25:00;14.00;;;10.10;;
11539;SDS011;5826;54.756;9.192;2024-03-02T06:27:25;14.77;;;9.70;;
11539;SDS011;5826;54.756;9.192;2024-03-02T06:29:50;15.68;;;11.43;;
11539;SDS011;5826;54.756;9.192;2024-03-02T06:32:16;18.83;;;14.15;;
11539;SDS011;5826;54.756;9.192;2024-03-02T06:34:42;14.93;;;10.82;;
11539;SDS011;5826;54.756;9.192;2024-03-02T06:37:07;14.57;;;11.07;;
11539;SDS011;5826;54.756;9.192;2024-03-02T06:39:33;15.23;;;10.82;;
11539;SDS011;5826;54.756;9.192;2024-03-02T06:41:59;16.88;;;11.55;;
11539;SDS011;5826;54.756;9.192;2024-03-02T06:44:28;12.93;;;9.25;;
11539;SDS011;5826;54.756;9.192;2024-03-02T06:46:53;14.38;;;10.98;;
11539;SDS011;5826;54.756;9.192;2024-03-02T06:49:19;14.23;;;10.50;;
11539;SDS011;5826;54.756;9.192;2024-03-02T06:51:44;14.90;;;10.90;;
11539;SDS011;5826;54.756;9.192;2024-03-02T06:54:10;16.77;;;12.73;;
11539;SDS011;5826;54.756;9.192;2024-03-02T06:56:35;13.73;;;10.32;;
11539;SDS011;5826;54.756;9.192;2024-03-02T06:59:01;17.58;;;12.32;;
11539;SDS011;5826;54.756;9.192;2024-03-02T07:01:26;15.50;;;11.02;;
11539;SDS011;5826;54.756;9.192;2024-03-02T07:03:52;15.25;;;10.77;;
11539;SDS011;5826;54.756;9.192;2024-03-02T07:06:18;15.18;;;10.85;;
11539;SDS011;5826;54.756;9.192;2024-03-02T07:08:43;17.17;;;12.57;;
11539;SDS011;5826;54.756;9.192;2024-03-02T07:11:09;19.52;;;13.30;;
11539;SDS011;5826;54.756;9.192;2024-03-02T07:13:34;17.83;;;12.65;;
11539;SDS011;5826;54.756;9.192;2024-03-02T07:16:00;19.83;;;14.20;;
11539;SDS011;5826;54.756;9.192;2024-03-02T07:18:31;18.30;;;13.82;;
11539;SDS011;5826;54.756;9.192;2024-03-02T07:20:58;16.23;;;11.77;;
11539;SDS011;5826;54.756;9.192;2024-03-02T07:23:25;17.08;;;11.65;;
11539;SDS011;5826;54.756;9.192;2024-03-02T07:25:55;19.23;;;13.43;;
11539;SDS011;5826;54.756;9.192;2024-03-02T07:28:22;18.30;;;13.90;;
11539;SDS011;5826;54.756;9.192;2024-03-02T07:30:57;18.77;;;13.60;;
11539;SDS011;5826;54.756;9.192;2024-03-02T07:33:23;20.88;;;13.52;;
11539;SDS011;5826;54.756;9.192;2024-03-02T07:35:49;18.05;;;12.32;;
11539;SDS011;5826;54.756;9.192;2024-03-02T07:38:14;17.05;;;12.77;;
11539;SDS011;5826;54.756;9.192;2024-03-02T07:40:40;19.13;;;14.68;;
11539;SDS011;5826;54.756;9.192;2024-03-02T07:43:05;21.35;;;15.40;;
11539;SDS011;5826;54.756;9.192;2024-03-02T07:45:31;18.05;;;14.50;;
11539;SDS011;5826;54.756;9.192;2024-03-02T07:47:56;22.33;;;16.27;;
11539;SDS011;5826;54.756;9.192;2024-03-02T07:50:23;18.40;;;13.32;;
11539;SDS011;5826;54.756;9.192;2024-03-02T07:52:48;19.27;;;14.13;;
11539;SDS011;5826;54.756;9.192;2024-03-02T07:55:13;18.25;;;12.82;;
11539;SDS011;5826;54.756;9.192;2024-03-02T07:57:40;17.13;;;13.90;;
11539;SDS011;5826;54.756;9.192;2024-03-02T08:00:05;21.65;;;16.45;;
11539;SDS011;5826;54.756;9.192;2024-03-02T08:02:31;19.77;;;14.48;;
11539;SDS011;5826;54.756;9.192;2024-03-02T08:04:57;20.77;;;15.50;;
11539;SDS011;5826;54.756;9.192;2024-03-02T08:07:22;17.85;;;13.52;;
11539;SDS011;5826;54.756;9.192;2024-03-02T08:09:48;16.45;;;13.20;;
11539;SDS011;5826;54.756;9.192;2024-03-02T08:12:13;14.98;;;12.40;;
11539;SDS011;5826;54.756;9.192;2024-03-02T08:14:39;16.48;;;12.55;;
11539;SDS011;5826;54.756;9.192;2024-03-02T08:17:05;20.85;;;15.05;;
11539;SDS011;5826;54.756;9.192;2024-03-02T08:19:34;14.85;;;12.05;;
11539;SDS011;5826;54.756;9.192;2024-03-02T08:22:00;17.15;;;13.63;;
11539;SDS011;5826;54.756;9.192;2024-03-02T08:24:25;17.58;;;12.60;;
11539;SDS011;5826;54.756;9.192;2024-03-02T08:26:51;14.98;;;12.15;;
11539;SDS011;5826;54.756;9.192;2024-03-02T08:29:16;19.02;;;14.85;;
11539;SDS011;5826;54.756;9.192;2024-03-02T08:31:42;22.65;;;17.05;;
11539;SDS011;5826;54.756;9.192;2024-03-02T08:34:07;16.27;;;12.52;;
11539;SDS011;5826;54.756;9.192;2024-03-02T08:36:34;22.30;;;17.23;;
11539;SDS011;5826;54.756;9.192;2024-03-02T08:38:59;15.65;;;12.85;;
11539;SDS011;5826;54.756;9.192;2024-03-02T08:41:25;16.08;;;12.75;;
11539;SDS011;5826;54.756;9.192;2024-03-02T08:43:50;18.00;;;13.90;;
11539;SDS011;5826;54.756;9.192;2024-03-02T08:46:16;13.75;;;11.40;;
11539;SDS011;5826;54.756;9.192;2024-03-02T08:48:41;14.80;;;12.15;;
11539;SDS011;5826;54.756;9.192;2024-03-02T08:51:07;16.42;;;13.15;;
11539;SDS011;5826;54.756;9.192;2024-03-02T08:53:35;14.93;;;12.05;;
11539;SDS011;5826;54.756;9.192;2024-03-02T08:56:00;13.52;;;11.02;;
11539;SDS011;5826;54.756;9.192;2024-03-02T08:58:26;14.40;;;11.98;;
11539;SDS011;5826;54.756;9.192;2024-03-02T09:00:52;13.02;;;11.45;;
11539;SDS011;5826;54.756;9.192;2024-03-02T09:03:17;15.05;;;11.90;;
11539;SDS011;5826;54.756;9.192;2024-03-02T09:05:43;17.35;;;13.48;;
11539;SDS011;5826;54.756;9.192;2024-03-02T09:08:08;14.05;;;11.05;;
11539;SDS011;5826;54.756;9.192;2024-03-02T09:10:34;16.17;;;12.68;;
11539;SDS011;5826;54.756;9.192;2024-03-02T09:12:59;13.18;;;11.50;;
11539;SDS011;5826;54.756;9.192;2024-03-02T09:15:25;13.50;;;10.80;;
11539;SDS011;5826;54.756;9.192;2024-03-02T09:17:50;18.40;;;14.63;;
11539;SDS011;5826;54.756;9.192;2024-03-02T09:20:16;14.52;;;12.18;;
11539;SDS011;5826;54.756;9.192;2024-03-02T09:22:42;17.10;;;13.05;;
11539;SDS011;5826;54.756;9.192;2024-03-02T09:25:07;13.60;;;10.52;;
11539;SDS011;5826;54.756;9.192;2024-03-02T09:27:35;12.82;;;10.55;;
11539;SDS011;5826;54.756;9.192;2024-03-02T09:30:02;12.43;;;10.85;;
11539;SDS011;5826;54.756;9.192;2024-03-02T09:32:28;11.82;;;9.95;;
11539;SDS011;5826;54.756;9.192;2024-03-02T09:34:53;13.65;;;11.82;;
11539;SDS011;5826;54.756;9.192;2024-03-02T09:37:20;12.07;;;9.93;;
11539;SDS011;5826;54.756;9.192;2024-03-02T09:39:46;13.13;;;10.60;;
11539;SDS011;5826;54.756;9.192;2024-03-02T09:42:12;13.15;;;11.27;;
11539;SDS011;5826;54.756;9.192;2024-03-02T09:44:37;11.55;;;9.93;;
11539;SDS011;5826;54.756;9.192;2024-03-02T09:47:03;14.07;;;11.48;;
11539;SDS011;5826;54.756;9.192;2024-03-02T09:49:30;15.00;;;11.38;;
11539;SDS011;5826;54.756;9.192;2024-03-02T09:51:56;12.07;;;9.52;;
11539;SDS011;5826;54.756;9.192;2024-03-02T09:54:22;10.55;;;9.35;;
11539;SDS011;5826;54.756;9.192;2024-03-02T09:56:47;14.98;;;12.85;;
11539;SDS011;5826;54.756;9.192;2024-03-02T09:59:14;15.93;;;13.32;;
11539;SDS011;5826;54.756;9.192;2024-03-02T10:01:55;12.75;;;10.43;;
11539;SDS011;5826;54.756;9.192;2024-03-02T10:04:22;15.20;;;12.38;;
11539;SDS011;5826;54.756;9.192;2024-03-02T10:06:50;12.90;;;10.25;;
11539;SDS011;5826;54.756;9.192;2024-03-02T10:09:26;11.85;;;9.82;;
11539;SDS011;5826;54.756;9.192;2024-03-02T10:11:53;14.48;;;12.45;;
11539;SDS011;5826;54.756;9.192;2024-03-02T10:14:18;13.55;;;12.00;;
11539;SDS011;5826;54.756;9.192;2024-03-02T10:16:44;11.82;;;9.48;;
11539;SDS011;5826;54.756;9.192;2024-03-02T10:19:17;12.70;;;10.82;;
11539;SDS011;5826;54.756;9.192;2024-03-02T10:21:44;11.38;;;9.73;;
11539;SDS011;5826;54.756;9.192;2024-03-02T10:24:11;11.70;;;10.40;;
11539;SDS011;5826;54.756;9.192;2024-03-02T10:26:37;10.73;;;9.35;;
11539;SDS011;5826;54.756;9.192;2024-03-02T10:29:03;11.55;;;9.85;;
11539;SDS011;5826;54.756;9.192;2024-03-02T10:31:28;9.93;;;8.73;;
11539;SDS011;5826;54.756;9.192;2024-03-02T10:33:54;12.80;;;10.52;;
11539;SDS011;5826;54.756;9.192;2024-03-02T10:36:20;10.60;;;8.90;;
11539;SDS011;5826;54.756;9.192;2024-03-02T10:38:46;9.70;;;8.45;;
11539;SDS011;5826;54.756;9.192;2024-03-02T10:41:16;10.50;;;8.57;;
11539;SDS011;5826;54.756;9.192;2024-03-02T10:43:43;10.32;;;9.13;;
11539;SDS011;5826;54.756;9.192;2024-03-02T10:46:09;11.80;;;10.18;;
11539;SDS011;5826;54.756;9.192;2024-03-02T10:48:36;9.52;;;8.52;;
11539;SDS011;5826;54.756;9.192;2024-03-02T10:51:04;14.00;;;10.30;;
11539;SDS011;5826;54.756;9.192;2024-03-02T10:53:30;10.23;;;9.02;;
11539;SDS011;5826;54.756;9.192;2024-03-02T10:55:57;10.32;;;9.15;;
11539;SDS011;5826;54.756;9.192;2024-03-02T10:58:28;11.52;;;9.57;;
11539;SDS011;5826;54.756;9.192;2024-03-02T11:00:59;16.00;;;12.98;;
11539;SDS011;5826;54.756;9.192;2024-03-02T11:03:28;14.20;;;11.32;;
11539;SDS011;5826;54.756;9.192;2024-03-02T11:05:58;9.88;;;8.85;;
11539;SDS011;5826;54.756;9.192;2024-03-02T11:08:25;12.48;;;11.18;;
11539;SDS011;5826;54.756;9.192;2024-03-02T11:10:57;10.73;;;9.45;;
11539;SDS011;5826;54.756;9.192;2024-03-02T11:13:27;10.27;;;9.18;;
11539;SDS011;5826;54.756;9.192;2024-03-02T11:15:58;10.48;;;8.82;;
11539;SDS011;5826;54.756;9.192;2024-03-02T11:18:29;9.95;;;8.75;;
11539;SDS011;5826;54.756;9.192;2024-03-02T11:20:55;11.75;;;9.05;;
11539;SDS011;5826;54.756;9.192;2024-03-02T11:23:31;12.23;;;10.50;;
11539;SDS011;5826;54.756;9.192;2024-03-02T11:26:17;10.50;;;8.82;;
11539;SDS011;5826;54.756;9.192;2024-03-02T11:28:44;13.88;;;10.93;;
11539;SDS011;5826;54.756;9.192;2024-03-02T11:31:09;14.70;;;11.82;;
11539;SDS011;5826;54.756;9.192;2024-03-02T11:33:34;12.00;;;10.13;;
11539;SDS011;5826;54.756;9.192;2024-03-02T11:36:00;12.20;;;10.90;;
11539;SDS011;5826;54.756;9.192;2024-03-02T11:38:30;13.50;;;11.35;;
11539;SDS011;5826;54.756;9.192;2024-03-02T11:40:57;12.20;;;10.43;;
11539;SDS011;5826;54.756;9.192;2024-03-02T11:43:25;17.58;;;11.57;;
11539;SDS011;5826;54.756;9.192;2024-03-02T11:46:03;14.50;;;12.20;;
11539;SDS011;5826;54.756;9.192;2024-03-02T11:48:32;13.93;;;11.23;;
11539;SDS011;5826;54.756;9.192;2024-03-02T11:50:58;12.10;;;10.25;;
11539;SDS011;5826;54.756;9.192;2024-03-02T11:53:25;11.68;;;9.05;;
11539;SDS011;5826;54.756;9.192;2024-03-02T11:55:54;11.15;;;9.32;;
11539;SDS011;5826;54.756;9.192;2024-03-02T11:58:20;10.82;;;9.43;;
11539;SDS011;5826;54.756;9.192;2024-03-02T12:00:55;10.00;;;8.88;;
11539;SDS011;5826;54.756;9.192;2024-03-02T12:03:25;10.30;;;9.10;;
11539;SDS011;5826;54.756;9.192;2024-03-02T12:05:52;10.18;;;8.90;;
11539;SDS011;5826;54.756;9.192;2024-03-02T12:08:18;9.85;;;8.80;;
11539;SDS011;5826;54.756;9.192;2024-03-02T12:10:55;12.48;;;9.10;;
11539;SDS011;5826;54.756;9.192;2024-03-02T12:13:25;12.98;;;10.38;;
11539;SDS011;5826;54.756;9.192;2024-03-02T12:15:52;12.65;;;10.13;;
11539;SDS011;5826;54.756;9.192;2024-03-02T12:18:20;12.75;;;10.45;;
11539;SDS011;5826;54.756;9.192;2024-03-02T12:20:45;10.13;;;8.90;;
11539;SDS011;5826;54.756;9.192;2024-03-02T12:23:13;12.05;;;10.85;;
11539;SDS011;5826;54.756;9.192;2024-03-02T12:25:38;11.30;;;10.10;;
11539;SDS011;5826;54.756;9.192;2024-03-02T12:28:04;11.45;;;10.25;;
11539;SDS011;5826;54.756;9.192;2024-03-02T12:30:31;9.48;;;8.30;;
11539;SDS011;5826;54.756;9.192;2024-03-02T12:33:00;11.52;;;9.25;;
11539;SDS011;5826;54.756;9.192;2024-03-02T12:35:26;12.85;;;11.30;;
11539;SDS011;5826;54.756;9.192;2024-03-02T12:37:52;11.77;;;10.38;;
11539;SDS011;5826;54.756;9.192;2024-03-02T12:40:19;10.80;;;9.32;;
11539;SDS011;5826;54.756;9.192;2024-03-02T12:42:45;13.60;;;11.27;;
11539;SDS011;5826;54.756;9.192;2024-03-02T12:45:12;14.77;;;11.82;;
11539;SDS011;5826;54.756;9.192;2024-03-02T12:47:41;12.85;;;11.45;;
11539;SDS011;5826;54.756;9.192;2024-03-02T12:50:08;11.23;;;10.02;;
11539;SDS011;5826;54.756;9.192;2024-03-02T12:52:34;13.05;;;11.18;;
11539;SDS011;5826;54.756;9.192;2024-03-02T12:55:01;11.77;;;10.52;;
11539;SDS011;5826;54.756;9.192;2024-03-02T12:57:29;12.13;;;10.82;;
11539;SDS011;5826;54.756;9.192;2024-03-02T13:00:05;10.18;;;9.07;;
11539;SDS011;5826;54.756;9.192;2024-03-02T13:02:35;11.80;;;10.60;;
11539;SDS011;5826;54.756;9.192;2024-03-02T13:05:01;13.15;;;10.50;;
11539;SDS011;5826;54.756;9.192;2024-03-02T13:07:28;11.50;;;10.18;;
11539;SDS011;5826;54.756;9.192;2024-03-02T13:09:54;11.73;;;10.32;;
11539;SDS011;5826;54.756;9.192;2024-03-02T13:12:21;12.70;;;11.30;;
11539;SDS011;5826;54.756;9.192;2024-03-02T13:14:49;11.55;;;10.35;;
11539;SDS011;5826;54.756;9.192;2024-03-02T13:17:17;10.65;;;8.93;;
11539;SDS011;5826;54.756;9.192;2024-03-02T13:19:50;11.15;;;9.57;;
11539;SDS011;5826;54.756;9.192;2024-03-02T13:22:19;11.32;;;9.75;;
11539;SDS011;5826;54.756;9.192;2024-03-02T13:24:45;10.80;;;9.70;;
11539;SDS011;5826;54.756;9.192;2024-03-02T13:27:10;10.95;;;9.70;;
11539;SDS011;5826;54.756;9.192;2024-03-02T13:29:36;10.32;;;8.93;;
11539;SDS011;5826;54.756;9.192;2024-03-02T13:32:02;10.77;;;8.73;;
11539;SDS011;5826;54.756;9.192;2024-03-02T13:34:28;10.32;;;9.23;;
11539;SDS011;5826;54.756;9.192;2024-03-02T13:36:53;11.13;;;9.48;;
11539;SDS011;5826;54.756;9.192;2024-03-02T13:39:18;9.57;;;8.57;;
11539;SDS011;5826;54.756;9.192;2024-03-02T13:41:44;8.88;;;7.85;;
11539;SDS011;5826;54.756;9.192;2024-03-02T13:44:17;9.52;;;8.57;;
11539;SDS011;5826;54.756;9.192;2024-03-02T13:46:43;9.00;;;8.10;;
11539;SDS011;5826;54.756;9.192;2024-03-02T13:49:10;9.27;;;8.27;;
11539;SDS011;5826;54.756;9.192;2024-03-02T13:51:36;7.50;;;6.80;;
11539;SDS011;5826;54.756;9.192;2024-03-02T13:54:02;8.60;;;7.10;;
11539;SDS011;5826;54.756;9.192;2024-03-02T13:56:28;7.80;;;7.00;;
11539;SDS011;5826;54.756;9.192;2024-03-02T13:58:54;7.93;;;6.97;;
11539;SDS011;5826;54.756;9.192;2024-03-02T14:01:20;6.22;;;5.63;;
11539;SDS011;5826;54.756;9.192;2024-03-02T14:03:45;6.38;;;5.78;;
11539;SDS011;5826;54.756;9.192;2024-03-02T14:06:11;6.43;;;5.82;;
11539;SDS011;5826;54.756;9.192;2024-03-02T14:08:37;6.65;;;6.05;;
11539;SDS011;5826;54.756;9.192;2024-03-02T14:11:02;6.35;;;5.85;;
11539;SDS011;5826;54.756;9.192;2024-03-02T14:13:28;7.00;;;6.30;;
11539;SDS011;5826;54.756;9.192;2024-03-02T14:15:54;6.43;;;5.82;;
11539;SDS011;5826;54.756;9.192;2024-03-02T14:18:19;7.15;;;6.45;;
11539;SDS011;5826;54.756;9.192;2024-03-02T14:20:46;6.95;;;6.35;;
11539;SDS011;5826;54.756;9.192;2024-03-02T14:23:17;6.45;;;5.90;;
11539;SDS011;5826;54.756;9.192;2024-03-02T14:25:45;7.72;;;7.00;;
11539;SDS011;5826;54.756;9.192;2024-03-02T14:28:11;6.63;;;6.03;;
11539;SDS011;5826;54.756;9.192;2024-03-02T14:30:37;5.22;;;4.72;;
11539;SDS011;5826;54.756;9.192;2024-03-02T14:33:02;6.45;;;5.85;;
11539;SDS011;5826;54.756;9.192;2024-03-02T14:35:28;6.80;;;6.20;;